sensor_id;sensor_type;location;lat;lon;timestamp;pressure;altitude;pressure_sealevel;temperature;humidity
34031;BME280;20319;28.466;-16.274;2022-09-09T00:01:01;100344.84;;;26.79;60.09
34031;BME280;20319;28.466;-16.274;2022-09-09T00:03:44;100336.31;;;26.80;60.43
34031;BME280;20319;28.466;-16.274;2022-09-09T00:09:15;100333.69;;;26.85;60.45
34031;BME280;20319;28.466;-16.274;2022-09-09T00:11:53;100337.63;;;26.89;60.64
34031;BME280;20319;28.466;-16.274;2022-09-09T00:20:32;100347.44;;;26.85;61.73
34031;BME280;20319;28.466;-16.274;2022-09-09T00:23:24;100350.97;;;26.69;62.05
34031;BME280;20319;28.466;-16.274;2022-09-09T00:28:39;100346.91;;;26.72;62.43
34031;BME280;20319;28.466;-16.274;2022-09-09T00:31:18;100345.97;;;26.66;62.39
34031;BME280;20319;28.466;-16.274;2022-09-09T00:33:46;100346.81;;;26.67;62.03
34031;BME280;20319;28.466;-16.274;2022-09-09T00:36:15;100349.44;;;26.62;62.50
34031;BME280;20319;28.466;-16.274;2022-09-09T00:39:02;100336.91;;;26.54;62.08
34031;BME280;20319;28.466;-16.274;2022-09-09T00:44:32;100330.91;;;26.69;61.49
34031;BME280;20319;28.466;-16.274;2022-09-09T00:47:18;100331.28;;;26.61;61.66
34031;BME280;20319;28.466;-16.274;2022-09-09T00:50:05;100321.97;;;26.50;62.14
34031;BME280;20319;28.466;-16.274;2022-09-09T00:55:22;100316.91;;;26.59;61.85
34031;BME280;20319;28.466;-16.274;2022-09-09T00:57:52;100328.41;;;26.67;62.05
34031;BME280;20319;28.466;-16.274;2022-09-09T01:00:22;100328.16;;;26.69;62.14
34031;BME280;20319;28.466;-16.274;2022-09-09T01:05:55;100321.91;;;26.45;62.68
34031;BME280;20319;28.466;-16.274;2022-09-09T01:11:29;100312.56;;;26.46;62.73
34031;BME280;20319;28.466;-16.274;2022-09-09T01:17:24;100314.66;;;26.67;62.06
34031;BME280;20319;28.466;-16.274;2022-09-09T01:22:35;100312.31;;;26.76;61.49
34031;BME280;20319;28.466;-16.274;2022-09-09T01:27:56;100310.41;;;26.76;61.58
34031;BME280;20319;28.466;-16.274;2022-09-09T01:30:24;100308.81;;;26.80;61.33
34031;BME280;20319;28.466;-16.274;2022-09-09T01:32:54;100308.66;;;26.87;61.33
34031;BME280;20319;28.466;-16.274;2022-09-09T01:38:20;100303.59;;;26.95;60.94
34031;BME280;20319;28.466;-16.274;2022-09-09T01:40:46;100295.75;;;26.87;61.62
34031;BME280;20319;28.466;-16.274;2022-09-09T01:43:13;100287.91;;;26.79;62.38
34031;BME280;20319;28.466;-16.274;2022-09-09T01:45:40;100296.22;;;26.68;63.23
34031;BME280;20319;28.466;-16.274;2022-09-09T01:48:08;100292.66;;;26.67;63.12
34031;BME280;20319;28.466;-16.274;2022-09-09T01:50:34;100283.88;;;26.70;63.22
34031;BME280;20319;28.466;-16.274;2022-09-09T01:53:01;100264.88;;;26.69;62.96
34031;BME280;20319;28.466;-16.274;2022-09-09T01:55:38;100277.63;;;26.75;62.77
34031;BME280;20319;28.466;-16.274;2022-09-09T02:03:32;100265.84;;;26.63;62.11
34031;BME280;20319;28.466;-16.274;2022-09-09T02:06:14;100266.91;;;26.45;62.12
34031;BME280;20319;28.466;-16.274;2022-09-09T02:08:47;100255.19;;;26.38;62.14
34031;BME280;20319;28.466;-16.274;2022-09-09T02:11:19;100265.69;;;26.41;61.83
34031;BME280;20319;28.466;-16.274;2022-09-09T02:13:48;100255.69;;;26.35;61.73
34031;BME280;20319;28.466;-16.274;2022-09-09T02:16:26;100250.53;;;26.39;61.51
34031;BME280;20319;28.466;-16.274;2022-09-09T02:21:34;100249.66;;;26.50;61.51
34031;BME280;20319;28.466;-16.274;2022-09-09T02:24:04;100242.81;;;26.52;61.09
34031;BME280;20319;28.466;-16.274;2022-09-09T02:26:32;100245.06;;;26.55;60.75
34031;BME280;20319;28.466;-16.274;2022-09-09T02:29:01;100240.75;;;26.59;60.82
34031;BME280;20319;28.466;-16.274;2022-09-09T02:31:28;100214.00;;;26.55;60.40
34031;BME280;20319;28.466;-16.274;2022-09-09T02:33:59;100212.31;;;26.54;60.33
34031;BME280;20319;28.466;-16.274;2022-09-09T02:36:29;100210.16;;;26.56;60.21
34031;BME280;20319;28.466;-16.274;2022-09-09T02:38:56;100229.13;;;26.69;60.36
34031;BME280;20319;28.466;-16.274;2022-09-09T02:41:33;100234.63;;;26.69;59.94
34031;BME280;20319;28.466;-16.274;2022-09-09T02:44:00;100234.38;;;26.70;59.92
34031;BME280;20319;28.466;-16.274;2022-09-09T02:52:05;100232.28;;;26.77;59.51
34031;BME280;20319;28.466;-16.274;2022-09-09T02:54:32;100222.03;;;26.89;59.33
34031;BME280;20319;28.466;-16.274;2022-09-09T02:57:21;100229.25;;;26.79;59.66
34031;BME280;20319;28.466;-16.274;2022-09-09T02:59:48;100220.19;;;26.78;59.44
34031;BME280;20319;28.466;-16.274;2022-09-09T03:02:13;100207.00;;;26.80;59.65
34031;BME280;20319;28.466;-16.274;2022-09-09T03:04:40;100209.28;;;26.83;59.47
34031;BME280;20319;28.466;-16.274;2022-09-09T03:07:07;100206.28;;;26.85;59.41
34031;BME280;20319;28.466;-16.274;2022-09-09T03:09:32;100199.94;;;26.84;59.47
34031;BME280;20319;28.466;-16.274;2022-09-09T03:11:58;100196.59;;;26.82;59.53
34031;BME280;20319;28.466;-16.274;2022-09-09T03:14:24;100184.84;;;26.70;59.65
34031;BME280;20319;28.466;-16.274;2022-09-09T03:16:51;100199.59;;;26.81;59.52
34031;BME280;20319;28.466;-16.274;2022-09-09T03:19:17;100187.44;;;26.77;59.51
34031;BME280;20319;28.466;-16.274;2022-09-09T03:21:44;100195.28;;;26.85;59.41
34031;BME280;20319;28.466;-16.274;2022-09-09T03:24:10;100209.09;;;26.90;59.53
34031;BME280;20319;28.466;-16.274;2022-09-09T03:26:36;100207.44;;;26.89;59.54
34031;BME280;20319;28.466;-16.274;2022-09-09T03:29:03;100198.59;;;26.87;59.47
34031;BME280;20319;28.466;-16.274;2022-09-09T03:31:32;100188.66;;;26.86;59.48
34031;BME280;20319;28.466;-16.274;2022-09-09T03:33:58;100199.25;;;26.94;59.66
34031;BME280;20319;28.466;-16.274;2022-09-09T03:36:25;100193.91;;;26.87;59.56
34031;BME280;20319;28.466;-16.274;2022-09-09T03:38:52;100196.69;;;26.87;59.59
34031;BME280;20319;28.466;-16.274;2022-09-09T03:41:17;100193.34;;;26.85;59.71
34031;BME280;20319;28.466;-16.274;2022-09-09T03:43:43;100196.09;;;26.85;59.74
34031;BME280;20319;28.466;-16.274;2022-09-09T03:46:09;100165.09;;;26.73;59.65
34031;BME280;20319;28.466;-16.274;2022-09-09T03:48:35;100186.34;;;26.78;59.39
34031;BME280;20319;28.466;-16.274;2022-09-09T03:51:01;100192.25;;;26.70;59.38
34031;BME280;20319;28.466;-16.274;2022-09-09T03:53:28;100184.25;;;26.68;59.28
34031;BME280;20319;28.466;-16.274;2022-09-09T03:55:55;100184.25;;;26.68;59.49
34031;BME280;20319;28.466;-16.274;2022-09-09T03:58:24;100184.59;;;26.72;59.56
34031;BME280;20319;28.466;-16.274;2022-09-09T04:01:10;100191.75;;;26.73;59.68
34031;BME280;20319;28.466;-16.274;2022-09-09T04:03:36;100184.94;;;26.75;59.47
34031;BME280;20319;28.466;-16.274;2022-09-09T04:06:03;100185.44;;;26.72;59.73
34031;BME280;20319;28.466;-16.274;2022-09-09T04:08:30;100191.41;;;26.69;59.69
34031;BME280;20319;28.466;-16.274;2022-09-09T04:10:57;100186.41;;;26.66;59.84
34031;BME280;20319;28.466;-16.274;2022-09-09T04:13:24;100186.41;;;26.66;59.78
34031;BME280;20319;28.466;-16.274;2022-09-09T04:15:55;100175.41;;;26.66;59.55
34031;BME280;20319;28.466;-16.274;2022-09-09T04:18:22;100175.41;;;26.66;59.69
34031;BME280;20319;28.466;-16.274;2022-09-09T04:20:52;100174.22;;;26.62;59.12
34031;BME280;20319;28.466;-16.274;2022-09-09T04:23:18;100181.28;;;26.58;59.05
34031;BME280;20319;28.466;-16.274;2022-09-09T04:25:50;100181.22;;;26.53;59.05
34031;BME280;20319;28.466;-16.274;2022-09-09T04:28:17;100187.22;;;26.50;58.68
34031;BME280;20319;28.466;-16.274;2022-09-09T04:30:43;100182.81;;;26.49;58.73
34031;BME280;20319;28.466;-16.274;2022-09-09T04:33:09;100181.16;;;26.48;58.90
34031;BME280;20319;28.466;-16.274;2022-09-09T04:35:36;100185.56;;;26.49;58.90
34031;BME280;20319;28.466;-16.274;2022-09-09T04:38:02;100177.22;;;26.44;58.90
34031;BME280;20319;28.466;-16.274;2022-09-09T04:40:29;100186.75;;;26.53;59.03
34031;BME280;20319;28.466;-16.274;2022-09-09T04:42:57;100175.75;;;26.53;59.28
34031;BME280;20319;28.466;-16.274;2022-09-09T04:45:22;100182.06;;;26.54;59.58
34031;BME280;20319;28.466;-16.274;2022-09-09T04:47:48;100182.31;;;26.52;59.36
34031;BME280;20319;28.466;-16.274;2022-09-09T04:50:14;100188.72;;;26.58;59.19
34031;BME280;20319;28.466;-16.274;2022-09-09T04:52:41;100188.47;;;26.59;59.32
34031;BME280;20319;28.466;-16.274;2022-09-09T04:55:07;100190.91;;;26.56;59.09
34031;BME280;20319;28.466;-16.274;2022-09-09T04:57:34;100184.47;;;26.50;59.22
34031;BME280;20319;28.466;-16.274;2022-09-09T04:59:59;100197.50;;;26.55;59.08
34031;BME280;20319;28.466;-16.274;2022-09-09T05:02:32;100200.91;;;26.45;59.24
34031;BME280;20319;28.466;-16.274;2022-09-09T05:04:58;100185.88;;;26.36;59.11
34031;BME280;20319;28.466;-16.274;2022-09-09T05:07:26;100207.56;;;26.49;59.40
34031;BME280;20319;28.466;-16.274;2022-09-09T05:09:52;100194.75;;;26.55;59.36
34031;BME280;20319;28.466;-16.274;2022-09-09T05:12:18;100185.56;;;26.49;59.10
34031;BME280;20319;28.466;-16.274;2022-09-09T05:14:44;100179.56;;;26.52;59.44
34031;BME280;20319;28.466;-16.274;2022-09-09T05:17:10;100178.69;;;26.52;59.10
34031;BME280;20319;28.466;-16.274;2022-09-09T05:19:36;100187.22;;;26.50;59.34
34031;BME280;20319;28.466;-16.274;2022-09-09T05:22:01;100180.22;;;26.43;59.37
34031;BME280;20319;28.466;-16.274;2022-09-09T05:24:27;100186.41;;;26.50;59.46
34031;BME280;20319;28.466;-16.274;2022-09-09T05:26:53;100171.06;;;26.37;59.35
34031;BME280;20319;28.466;-16.274;2022-09-09T05:29:18;100189.50;;;26.53;59.35
34031;BME280;20319;28.466;-16.274;2022-09-09T05:31:47;100189.16;;;26.50;59.27
34031;BME280;20319;28.466;-16.274;2022-09-09T05:34:18;100182.72;;;26.44;59.33
34031;BME280;20319;28.466;-16.274;2022-09-09T05:36:44;100190.38;;;26.42;59.50
34031;BME280;20319;28.466;-16.274;2022-09-09T05:39:10;100186.91;;;26.47;59.22
34031;BME280;20319;28.466;-16.274;2022-09-09T05:41:37;100184.81;;;26.54;59.43
34031;BME280;20319;28.466;-16.274;2022-09-09T05:44:02;100174.13;;;26.57;59.42
34031;BME280;20319;28.466;-16.274;2022-09-09T05:46:29;100177.47;;;26.59;59.55
34031;BME280;20319;28.466;-16.274;2022-09-09T05:48:55;100159.69;;;26.50;59.55
34031;BME280;20319;28.466;-16.274;2022-09-09T05:51:29;100177.72;;;26.58;59.40
34031;BME280;20319;28.466;-16.274;2022-09-09T05:53:58;100185.06;;;26.52;59.04
34031;BME280;20319;28.466;-16.274;2022-09-09T05:56:26;100182.06;;;26.54;59.43
34031;BME280;20319;28.466;-16.274;2022-09-09T05:58:52;100187.28;;;26.55;59.29
34031;BME280;20319;28.466;-16.274;2022-09-09T06:01:24;100185.06;;;26.52;59.23
34031;BME280;20319;28.466;-16.274;2022-09-09T06:03:52;100181.44;;;26.52;59.19
34031;BME280;20319;28.466;-16.274;2022-09-09T06:06:27;100181.72;;;26.50;59.45
34031;BME280;20319;28.466;-16.274;2022-09-09T06:08:55;100176.72;;;26.47;59.42
34031;BME280;20319;28.466;-16.274;2022-09-09T06:11:31;100174.47;;;26.44;59.49
34031;BME280;20319;28.466;-16.274;2022-09-09T06:13:57;100174.97;;;26.41;59.42
34031;BME280;20319;28.466;-16.274;2022-09-09T06:16:24;100178.56;;;26.42;59.48
34031;BME280;20319;28.466;-16.274;2022-09-09T06:18:50;100180.47;;;26.41;59.79
34031;BME280;20319;28.466;-16.274;2022-09-09T06:21:19;100176.88;;;26.41;60.12
34031;BME280;20319;28.466;-16.274;2022-09-09T06:23:45;100167.81;;;26.40;60.10
34031;BME280;20319;28.466;-16.274;2022-09-09T06:26:18;100174.13;;;26.41;60.75
34031;BME280;20319;28.466;-16.274;2022-09-09T06:28:48;100183.22;;;26.41;60.63
34031;BME280;20319;28.466;-16.274;2022-09-09T06:31:16;100188.72;;;26.41;60.71
34031;BME280;20319;28.466;-16.274;2022-09-09T06:33:42;100192.56;;;26.40;60.73
34031;BME280;20319;28.466;-16.274;2022-09-09T06:36:14;100204.59;;;26.39;60.93
34031;BME280;20319;28.466;-16.274;2022-09-09T06:38:44;100204.84;;;26.38;60.58
34031;BME280;20319;28.466;-16.274;2022-09-09T06:41:11;100198.56;;;26.37;60.72
34031;BME280;20319;28.466;-16.274;2022-09-09T06:43:37;100200.69;;;26.35;60.67
34031;BME280;20319;28.466;-16.274;2022-09-09T06:46:09;100179.84;;;26.23;60.74
34031;BME280;20319;28.466;-16.274;2022-09-09T06:48:35;100200.09;;;26.33;60.76
34031;BME280;20319;28.466;-16.274;2022-09-09T06:51:07;100198.34;;;26.27;60.85
34031;BME280;20319;28.466;-16.274;2022-09-09T06:53:34;100214.84;;;26.27;60.85
34031;BME280;20319;28.466;-16.274;2022-09-09T06:58:42;100210.59;;;26.36;60.67
34031;BME280;20319;28.466;-16.274;2022-09-09T07:01:18;100195.00;;;26.25;60.62
34031;BME280;20319;28.466;-16.274;2022-09-09T07:03:50;100213.59;;;26.35;60.38
34031;BME280;20319;28.466;-16.274;2022-09-09T07:06:18;100208.84;;;26.30;60.29
34031;BME280;20319;28.466;-16.274;2022-09-09T07:08:49;100206.34;;;26.29;60.68
34031;BME280;20319;28.466;-16.274;2022-09-09T07:11:15;100204.19;;;26.31;60.36
34031;BME280;20319;28.466;-16.274;2022-09-09T07:13:41;100216.09;;;26.36;60.58
34031;BME280;20319;28.466;-16.274;2022-09-09T07:16:09;100219.19;;;26.40;60.41
34031;BME280;20319;28.466;-16.274;2022-09-09T07:18:35;100221.47;;;26.43;60.31
34031;BME280;20319;28.466;-16.274;2022-09-09T07:21:03;100233.91;;;26.45;60.26
34031;BME280;20319;28.466;-16.274;2022-09-09T07:23:29;100236.16;;;26.48;60.18
34031;BME280;20319;28.466;-16.274;2022-09-09T07:25:57;100247.72;;;26.50;59.99
34031;BME280;20319;28.466;-16.274;2022-09-09T07:28:24;100248.56;;;26.51;59.92
34031;BME280;20319;28.466;-16.274;2022-09-09T07:31:00;100259.41;;;26.57;60.07
34031;BME280;20319;28.466;-16.274;2022-09-09T07:33:31;100262.00;;;26.64;59.80
34031;BME280;20319;28.466;-16.274;2022-09-09T07:36:14;100262.38;;;26.67;59.60
34031;BME280;20319;28.466;-16.274;2022-09-09T07:38:42;100263.28;;;26.73;59.52
34031;BME280;20319;28.466;-16.274;2022-09-09T07:41:14;100266.63;;;26.75;59.55
34031;BME280;20319;28.466;-16.274;2022-09-09T07:43:41;100268.78;;;26.73;59.45
34031;BME280;20319;28.466;-16.274;2022-09-09T07:46:09;100266.13;;;26.78;59.44
34031;BME280;20319;28.466;-16.274;2022-09-09T07:48:35;100272.47;;;26.78;59.83
34031;BME280;20319;28.466;-16.274;2022-09-09T07:51:05;100277.13;;;26.78;59.72
34031;BME280;20319;28.466;-16.274;2022-09-09T07:53:31;100284.31;;;26.79;59.74
34031;BME280;20319;28.466;-16.274;2022-09-09T07:56:12;100269.72;;;26.78;59.66
34031;BME280;20319;28.466;-16.274;2022-09-09T07:58:39;100278.78;;;26.79;59.56
34031;BME280;20319;28.466;-16.274;2022-09-09T08:01:10;100291.50;;;26.80;59.68
34031;BME280;20319;28.466;-16.274;2022-09-09T08:03:37;100290.66;;;26.79;59.22
34031;BME280;20319;28.466;-16.274;2022-09-09T08:06:05;100302.50;;;26.80;59.47
34031;BME280;20319;28.466;-16.274;2022-09-09T08:08:32;100307.75;;;26.81;59.43
34031;BME280;20319;28.466;-16.274;2022-09-09T08:11:07;100301.16;;;26.82;59.39
34031;BME280;20319;28.466;-16.274;2022-09-09T08:13:35;100317.16;;;26.85;59.39
34031;BME280;20319;28.466;-16.274;2022-09-09T08:16:10;100309.50;;;26.87;59.15
34031;BME280;20319;28.466;-16.274;2022-09-09T08:18:36;100319.66;;;26.87;59.69
34031;BME280;20319;28.466;-16.274;2022-09-09T08:21:13;100330.91;;;26.85;59.92
34031;BME280;20319;28.466;-16.274;2022-09-09T08:23:44;100327.66;;;26.88;59.98
34031;BME280;20319;28.466;-16.274;2022-09-09T08:26:13;100328.16;;;26.85;60.61
34031;BME280;20319;28.466;-16.274;2022-09-09T08:28:40;100328.41;;;26.84;61.06
34031;BME280;20319;28.466;-16.274;2022-09-09T08:31:16;100322.09;;;26.83;61.35
34031;BME280;20319;28.466;-16.274;2022-09-09T08:33:43;100326.25;;;26.86;61.13
34031;BME280;20319;28.466;-16.274;2022-09-09T08:36:13;100332.38;;;26.88;61.17
34031;BME280;20319;28.466;-16.274;2022-09-09T08:38:41;100331.38;;;26.94;61.27
34031;BME280;20319;28.466;-16.274;2022-09-09T08:41:49;100338.22;;;26.91;61.74
34031;BME280;20319;28.466;-16.274;2022-09-09T08:47:11;100345.78;;;26.84;60.91
34031;BME280;20319;28.466;-16.274;2022-09-09T08:49:58;100359.53;;;26.84;60.80
34031;BME280;20319;28.466;-16.274;2022-09-09T08:52:37;100362.97;;;26.91;60.32
34031;BME280;20319;28.466;-16.274;2022-09-09T08:58:17;100364.63;;;26.92;59.68
34031;BME280;20319;28.466;-16.274;2022-09-09T09:01:10;100361.63;;;26.94;60.03
34031;BME280;20319;28.466;-16.274;2022-09-09T09:04:00;100361.72;;;26.99;59.99
34031;BME280;20319;28.466;-16.274;2022-09-09T09:11:51;100367.63;;;26.63;61.14
34031;BME280;20319;28.466;-16.274;2022-09-09T09:14:20;100374.19;;;26.62;61.19
34031;BME280;20319;28.466;-16.274;2022-09-09T09:16:57;100367.63;;;26.63;61.29
34031;BME280;20319;28.466;-16.274;2022-09-09T09:19:25;100374.19;;;26.73;61.22
34031;BME280;20319;28.466;-16.274;2022-09-09T09:22:26;100374.84;;;26.80;61.13
34031;BME280;20319;28.466;-16.274;2022-09-09T09:27:43;100379.06;;;26.99;61.29
34031;BME280;20319;28.466;-16.274;2022-09-09T09:30:23;100387.72;;;27.19;60.94
34031;BME280;20319;28.466;-16.274;2022-09-09T09:33:02;100380.81;;;27.33;60.90
34031;BME280;20319;28.466;-16.274;2022-09-09T09:35:31;100395.28;;;27.40;60.72
34031;BME280;20319;28.466;-16.274;2022-09-09T09:37:57;100400.78;;;27.40;60.63
34031;BME280;20319;28.466;-16.274;2022-09-09T09:40:22;100403.28;;;27.42;60.87
34031;BME280;20319;28.466;-16.274;2022-09-09T09:42:59;100408.38;;;27.50;60.45
34031;BME280;20319;28.466;-16.274;2022-09-09T09:45:33;100413.81;;;27.45;60.92
34031;BME280;20319;28.466;-16.274;2022-09-09T09:48:09;100411.53;;;27.58;60.70
34031;BME280;20319;28.466;-16.274;2022-09-09T09:50:35;100415.63;;;27.73;60.69
34031;BME280;20319;28.466;-16.274;2022-09-09T09:53:29;100414.69;;;27.84;60.26
34031;BME280;20319;28.466;-16.274;2022-09-09T09:56:06;100405.53;;;27.95;59.47
34031;BME280;20319;28.466;-16.274;2022-09-09T10:01:30;100413.69;;;28.06;59.05
34031;BME280;20319;28.466;-16.274;2022-09-09T10:04:20;100405.81;;;28.15;58.83
34031;BME280;20319;28.466;-16.274;2022-09-09T10:06:49;100406.41;;;28.17;58.18
34031;BME280;20319;28.466;-16.274;2022-09-09T10:11:58;100406.34;;;28.12;58.43
34031;BME280;20319;28.466;-16.274;2022-09-09T10:14:41;100422.91;;;27.79;59.31
34031;BME280;20319;28.466;-16.274;2022-09-09T10:26:11;100415.22;;;27.97;58.72
34031;BME280;20319;28.466;-16.274;2022-09-09T10:36:34;100410.38;;;28.04;59.14
34031;BME280;20319;28.466;-16.274;2022-09-09T10:39:14;100416.84;;;28.15;58.64
34031;BME280;20319;28.466;-16.274;2022-09-09T10:50:18;100404.16;;;28.52;58.56
34031;BME280;20319;28.466;-16.274;2022-09-09T10:55:20;100407.56;;;28.85;57.53
34031;BME280;20319;28.466;-16.274;2022-09-09T10:57:52;100421.47;;;28.95;57.05
34031;BME280;20319;28.466;-16.274;2022-09-09T11:00:40;100406.38;;;29.03;56.71
34031;BME280;20319;28.466;-16.274;2022-09-09T11:03:19;100427.00;;;29.17;56.73
34031;BME280;20319;28.466;-16.274;2022-09-09T11:06:00;100418.19;;;28.98;56.50
34031;BME280;20319;28.466;-16.274;2022-09-09T11:08:32;100425.34;;;28.73;56.76
34031;BME280;20319;28.466;-16.274;2022-09-09T11:11:06;100436.09;;;28.69;57.13
34031;BME280;20319;28.466;-16.274;2022-09-09T11:16:28;100446.28;;;29.12;56.74
34031;BME280;20319;28.466;-16.274;2022-09-09T11:19:01;100437.34;;;29.32;56.33
34031;BME280;20319;28.466;-16.274;2022-09-09T11:21:34;100437.19;;;29.43;56.09
34031;BME280;20319;28.466;-16.274;2022-09-09T11:24:06;100434.53;;;29.53;55.25
34031;BME280;20319;28.466;-16.274;2022-09-09T11:26:39;100432.19;;;29.40;55.08
34031;BME280;20319;28.466;-16.274;2022-09-09T11:40:23;100406.00;;;29.74;54.70
34031;BME280;20319;28.466;-16.274;2022-09-09T11:43:23;100402.66;;;29.72;54.56
34031;BME280;20319;28.466;-16.274;2022-09-09T11:45:55;100394.84;;;29.64;54.70
34031;BME280;20319;28.466;-16.274;2022-09-09T11:51:06;100393.16;;;29.63;54.43
34031;BME280;20319;28.466;-16.274;2022-09-09T11:56:32;100397.53;;;29.59;55.35
34031;BME280;20319;28.466;-16.274;2022-09-09T11:59:00;100408.97;;;29.41;55.25
34031;BME280;20319;28.466;-16.274;2022-09-09T12:01:44;100399.66;;;29.47;55.29
34031;BME280;20319;28.466;-16.274;2022-09-09T12:14:43;100360.22;;;29.93;54.31
34031;BME280;20319;28.466;-16.274;2022-09-09T12:17:30;100350.88;;;30.04;54.48
34031;BME280;20319;28.466;-16.274;2022-09-09T12:31:20;100335.03;;;30.52;53.25
34031;BME280;20319;28.466;-16.274;2022-09-09T12:33:48;100316.25;;;30.59;52.73
34031;BME280;20319;28.466;-16.274;2022-09-09T12:36:29;100319.53;;;30.46;52.58
34031;BME280;20319;28.466;-16.274;2022-09-09T12:38:59;100320.66;;;30.50;53.16
34031;BME280;20319;28.466;-16.274;2022-09-09T12:41:35;100312.34;;;30.55;52.68
34031;BME280;20319;28.466;-16.274;2022-09-09T12:44:09;100312.88;;;30.42;52.81
34031;BME280;20319;28.466;-16.274;2022-09-09T12:46:39;100310.69;;;30.49;53.36
34031;BME280;20319;28.466;-16.274;2022-09-09T12:49:34;100310.16;;;30.57;53.13
34031;BME280;20319;28.466;-16.274;2022-09-09T12:52:29;100286.94;;;30.68;52.59
34031;BME280;20319;28.466;-16.274;2022-09-09T12:54:52;100306.06;;;30.89;52.60
34031;BME280;20319;28.466;-16.274;2022-09-09T12:57:19;100302.47;;;30.99;52.02
34031;BME280;20319;28.466;-16.274;2022-09-09T12:59:47;100304.44;;;30.98;51.92
34031;BME280;20319;28.466;-16.274;2022-09-09T13:02:23;100291.97;;;31.06;51.66
34031;BME280;20319;28.466;-16.274;2022-09-09T13:04:50;100277.00;;;31.12;51.59
34031;BME280;20319;28.466;-16.274;2022-09-09T13:07:18;100291.16;;;31.20;51.28
34031;BME280;20319;28.466;-16.274;2022-09-09T13:09:45;100285.59;;;31.10;51.25
34031;BME280;20319;28.466;-16.274;2022-09-09T13:12:18;100290.31;;;31.05;51.52
34031;BME280;20319;28.466;-16.274;2022-09-09T13:14:47;100288.38;;;31.05;51.59
34031;BME280;20319;28.466;-16.274;2022-09-09T13:17:24;100274.25;;;31.22;51.75
34031;BME280;20319;28.466;-16.274;2022-09-09T13:19:52;100275.88;;;31.48;51.03
34031;BME280;20319;28.466;-16.274;2022-09-09T13:27:32;100274.44;;;31.91;50.16
34031;BME280;20319;28.466;-16.274;2022-09-09T13:29:59;100273.06;;;31.78;49.81
34031;BME280;20319;28.466;-16.274;2022-09-09T13:32:26;100256.97;;;31.75;50.02
34031;BME280;20319;28.466;-16.274;2022-09-09T13:34:54;100266.94;;;31.91;49.94
34031;BME280;20319;28.466;-16.274;2022-09-09T13:37:32;100260.22;;;32.02;49.84
34031;BME280;20319;28.466;-16.274;2022-09-09T13:39:59;100256.84;;;32.15;49.39
34031;BME280;20319;28.466;-16.274;2022-09-09T13:42:30;100257.38;;;32.22;49.20
34031;BME280;20319;28.466;-16.274;2022-09-09T13:44:57;100254.81;;;32.31;48.90
34031;BME280;20319;28.466;-16.274;2022-09-09T13:47:35;100250.41;;;32.25;48.20
34031;BME280;20319;28.466;-16.274;2022-09-09T13:50:30;100247.63;;;32.25;47.99
34031;BME280;20319;28.466;-16.274;2022-09-09T13:52:57;100245.13;;;32.28;48.08
34031;BME280;20319;28.466;-16.274;2022-09-09T13:55:25;100245.09;;;32.33;47.86
34031;BME280;20319;28.466;-16.274;2022-09-09T13:57:56;100240.63;;;32.42;47.74
34031;BME280;20319;28.466;-16.274;2022-09-09T14:00:23;100238.91;;;32.51;47.49
34031;BME280;20319;28.466;-16.274;2022-09-09T14:02:49;100230.59;;;32.51;47.46
34031;BME280;20319;28.466;-16.274;2022-09-09T14:05:15;100225.25;;;32.55;47.18
34031;BME280;20319;28.466;-16.274;2022-09-09T14:07:43;100203.97;;;32.40;46.87
34031;BME280;20319;28.466;-16.274;2022-09-09T14:10:13;100208.50;;;32.21;46.87
34031;BME280;20319;28.466;-16.274;2022-09-09T14:12:39;100203.41;;;31.95;47.33
34031;BME280;20319;28.466;-16.274;2022-09-09T14:15:06;100202.31;;;31.81;47.81
34031;BME280;20319;28.466;-16.274;2022-09-09T14:17:33;100212.03;;;31.88;48.21
34031;BME280;20319;28.466;-16.274;2022-09-09T14:20:00;100211.41;;;32.01;48.15
34031;BME280;20319;28.466;-16.274;2022-09-09T14:22:26;100205.81;;;32.11;48.01
34031;BME280;20319;28.466;-16.274;2022-09-09T14:24:52;100202.97;;;32.21;47.90
34031;BME280;20319;28.466;-16.274;2022-09-09T14:27:17;100199.38;;;32.21;48.28
34031;BME280;20319;28.466;-16.274;2022-09-09T14:29:44;100185.78;;;32.19;48.41
34031;BME280;20319;28.466;-16.274;2022-09-09T14:32:10;100201.22;;;32.35;48.32
34031;BME280;20319;28.466;-16.274;2022-09-09T14:34:36;100201.72;;;32.47;48.29
34031;BME280;20319;28.466;-16.274;2022-09-09T14:37:02;100205.84;;;32.50;47.87
34031;BME280;20319;28.466;-16.274;2022-09-09T14:39:28;100207.72;;;32.59;47.56
34031;BME280;20319;28.466;-16.274;2022-09-09T14:41:54;100197.13;;;32.66;47.46
34031;BME280;20319;28.466;-16.274;2022-09-09T14:44:20;100190.22;;;32.64;47.11
34031;BME280;20319;28.466;-16.274;2022-09-09T14:46:45;100194.63;;;32.70;47.47
34031;BME280;20319;28.466;-16.274;2022-09-09T14:49:11;100192.50;;;32.57;47.29
34031;BME280;20319;28.466;-16.274;2022-09-09T14:51:38;100180.97;;;32.40;47.77
34031;BME280;20319;28.466;-16.274;2022-09-09T14:54:04;100172.94;;;32.38;48.28
34031;BME280;20319;28.466;-16.274;2022-09-09T14:56:32;100181.25;;;32.33;47.84
34031;BME280;20319;28.466;-16.274;2022-09-09T14:59:00;100174.28;;;31.97;48.26
34031;BME280;20319;28.466;-16.274;2022-09-09T15:01:30;100179.31;;;31.80;48.84
34031;BME280;20319;28.466;-16.274;2022-09-09T15:04:02;100181.31;;;31.69;49.63
34031;BME280;20319;28.466;-16.274;2022-09-09T15:06:30;100188.28;;;31.62;49.54
34031;BME280;20319;28.466;-16.274;2022-09-09T15:08:57;100180.53;;;31.59;49.49
34031;BME280;20319;28.466;-16.274;2022-09-09T15:11:31;100177.47;;;31.55;49.54
34031;BME280;20319;28.466;-16.274;2022-09-09T15:13:59;100167.75;;;31.53;49.90